X  CloseMetar Aviation Weather Data     KABQ Albuquerque International Sunport

Temperature

66°F Temperature

10°F Dewpoint

11% Humidity



Wind

 8 MPH

13 KM/H

 4 M/S

 7 KTS



200°
South South
West
Current Conditions

Clear Clear
Pressure 1013.92 (hPa) - 29.94 (in)
Visibility 10 (mi) - 16.1 (km)
Airport
Airport-code KABQ

Location Albuquerque International Sunport 16 (mi)

Metar:
KABQ 192152Z 20007KT 10SM CLR 19/M12 A2994 RMK AO2 SLP088 T01891122

Time: 10-19-2019 3:52